ΕΜΥ, Εθνική Μετεωρολογική Υπηρεσία - Δελτία Καιρού, Προγνώσεις

ΑΕΡΟΝΑΥΤΙΛΙΑ

GREEK AIRPORTS CODES

LGMG 201700Z 00000KT 9999 SCT030 31/18 Q1009 RMK SCT080=

EUROPEAN AIRPORTS CODES

LFPO 202000Z 29007KT 9999 FEW020 SCT063 BKN093 18/15 Q1013NOSIG=